Eurasian Highway — 7JKY — position and weather

sailwx.info

Track history (hours):
 
Tides and Currents Weather Stations Pressure Air Temp Water Temp Dewpoint Dewpoint Depression Visibility Wind Speed Wind Dir Waves Ship Positions

Eurasian Highway

Last reported at 2015-Aug-27 10:06 UTC. Time now 2015-Aug-31 19:54 UTC.
Position N 31°08' W 081°32'.

Length 199 m; draft 9.3 m.

Type: Cargo ship. MMSI: 432839000.

Date/timePositionNaut miles runAvg speedWind from/ knotsBaromVisibWave heightAir tempDewpointWater temp
2015-Aug-27 10:06N 31°08' W 081°32'0 0.0
2015-Aug-27 09:33N 31°08' W 081°32'0 0.0
2015-Aug-27 08:30N 31°08' W 081°32'0 0.0
2015-Aug-27 07:33N 31°08' W 081°32'69 4.2
2015-Aug-26 15:04N 31°24' W 080°13'917.6
2015-Aug-26 14:33N 31°30' W 080°05'1817.2
2015-Aug-26 13:32N 31°41' W 079°49'1717.3
2015-Aug-26 12:33N 31°53' W 079°35'23217.5
2015-Aug-25 23:20N 34°26' W 076°07'17714.9
2015-Aug-25 11:29N 37°23' W 076°05'1515.9
2015-Aug-25 10:33N 37°38' W 076°07'1717.0
2015-Aug-25 09:33N 37°55' W 076°10'1918.3
2015-Aug-25 08:32N 38°13' W 076°15'1818.3
2015-Aug-25 07:33N 38°29' W 076°24'1717.4
2015-Aug-25 06:34N 38°47' W 076°25'1615.5
2015-Aug-25 05:33N 39°02' W 076°23'1212.0
2015-Aug-25 04:33N 39°12' W 076°31'3 1.5
2015-Aug-25 02:30N 39°15' W 076°32'0 0.0
2015-Aug-25 01:24N 39°15' W 076°32'0 0.0
2015-Aug-25 00:30N 39°15' W 076°32'0 0.0
2015-Aug-24 22:15N 39°15' W 076°32'0 0.0
2015-Aug-24 21:27N 39°15' W 076°32'0 0.0
2015-Aug-24 20:24N 39°15' W 076°32'0 0.0
2015-Aug-24 17:06N 39°15' W 076°32'0 0.0
2015-Aug-24 16:33N 39°15' W 076°32'1 0.9
2015-Aug-24 15:34N 39°15' W 076°33'2 1.7
2015-Aug-24 14:31N 39°15' W 076°35'0 0.0
2015-Aug-24 13:31N 39°15' W 076°35'0 0.0
2015-Aug-24 12:34N 39°15' W 076°35'0 0.0
2015-Aug-24 11:30N 39°15' W 076°35'0 0.0
2015-Aug-24 10:28N 39°15' W 076°35'0 0.0
2015-Aug-24 09:31N 39°15' W 076°35'0 0.0
2015-Aug-24 08:34N 39°15' W 076°35'1 1.3
2015-Aug-24 07:33N 39°14' W 076°33'1010.3
2015-Aug-24 06:33N 39°07' W 076°24'1515.1
2015-Aug-24 05:33N 38°52' W 076°24'2018.4
2015-Aug-24 04:30N 38°33' W 076°26'2318.8
2015-Aug-24 03:18N 38°12' W 076°15'1518.6
2015-Aug-24 02:31N 37°58' W 076°11'  
Track history (hours):
 
Tides and Currents Weather Stations Pressure Air Temp Water Temp Dewpoint Dewpoint Depression Visibility Wind Speed Wind Dir Waves Ship Positions

Eurasian Highway

Last reported at 2015-Aug-27 10:06 UTC. Time now 2015-Aug-31 19:54 UTC.
Position N 31°08' W 081°32'.

Length 199 m; draft 9.3 m.

Type: Cargo ship. MMSI: 432839000.

Date/timePositionNaut miles runAvg speedWind from/ knotsBaromVisibWave heightAir tempDewpointWater temp
2015-Aug-27 10:06N 31°08' W 081°32'0 0.0
2015-Aug-27 09:33N 31°08' W 081°32'0 0.0
2015-Aug-27 08:30N 31°08' W 081°32'0 0.0
2015-Aug-27 07:33N 31°08' W 081°32'69 4.2
2015-Aug-26 15:04N 31°24' W 080°13'917.6
2015-Aug-26 14:33N 31°30' W 080°05'1817.2
2015-Aug-26 13:32N 31°41' W 079°49'1717.3
2015-Aug-26 12:33N 31°53' W 079°35'23217.5
2015-Aug-25 23:20N 34°26' W 076°07'17714.9
2015-Aug-25 11:29N 37°23' W 076°05'1515.9
2015-Aug-25 10:33N 37°38' W 076°07'1717.0
2015-Aug-25 09:33N 37°55' W 076°10'1918.3
2015-Aug-25 08:32N 38°13' W 076°15'1818.3
2015-Aug-25 07:33N 38°29' W 076°24'1717.4
2015-Aug-25 06:34N 38°47' W 076°25'1615.5
2015-Aug-25 05:33N 39°02' W 076°23'1212.0
2015-Aug-25 04:33N 39°12' W 076°31'3 1.5
2015-Aug-25 02:30N 39°15' W 076°32'0 0.0
2015-Aug-25 01:24N 39°15' W 076°32'0 0.0
2015-Aug-25 00:30N 39°15' W 076°32'0 0.0
2015-Aug-24 22:15N 39°15' W 076°32'0 0.0
2015-Aug-24 21:27N 39°15' W 076°32'0 0.0
2015-Aug-24 20:24N 39°15' W 076°32'0 0.0
2015-Aug-24 17:06N 39°15' W 076°32'0 0.0
2015-Aug-24 16:33N 39°15' W 076°32'1 0.9
2015-Aug-24 15:34N 39°15' W 076°33'2 1.7
2015-Aug-24 14:31N 39°15' W 076°35'0 0.0
2015-Aug-24 13:31N 39°15' W 076°35'0 0.0
2015-Aug-24 12:34N 39°15' W 076°35'0 0.0
2015-Aug-24 11:30N 39°15' W 076°35'0 0.0
2015-Aug-24 10:28N 39°15' W 076°35'0 0.0
2015-Aug-24 09:31N 39°15' W 076°35'0 0.0
2015-Aug-24 08:34N 39°15' W 076°35'1 1.3
2015-Aug-24 07:33N 39°14' W 076°33'1010.3
2015-Aug-24 06:33N 39°07' W 076°24'1515.1
2015-Aug-24 05:33N 38°52' W 076°24'2018.4
2015-Aug-24 04:30N 38°33' W 076°26'2318.8
2015-Aug-24 03:18N 38°12' W 076°15'1518.6
2015-Aug-24 02:31N 37°58' W 076°11'  

Dump ship's entire track history